Pilot No. 4 — WDA5463 — position and weather

sailwx.info

Track history (hours):
 
Tides and Currents Weather Stations Pressure Air Temp Water Temp Dewpoint Dewpoint Depression Visibility Wind Speed Wind Dir Waves Ship Positions

Pilot No. 4

Owner: P E P Inc, FORT LAUDERDALE, FL. More information available from US FCC via Universal Licensing System and Coast Guard Vessel Documentation Center.

Last reported at 2017-Feb-27 19:32 UTC. Time now 2017-Feb-28 12:45 UTC.
Position N 26°06' W 080°07'.

MMSI: 495270931.

Date/timePositionNaut miles runAvg speedWind from/ knotsBaromVisibWave heightAir tempDewpointWater temp
2017-Feb-27 19:32N 26°06' W 080°07'2 2.1
2017-Feb-27 18:33N 26°04' W 080°07'2 0.5
2017-Feb-27 15:34N 26°06' W 080°07'1 0.1
2017-Feb-27 03:32N 26°06' W 080°07'1 0.8
2017-Feb-27 02:33N 26°06' W 080°07'1 1.2
2017-Feb-27 01:34N 26°06' W 080°05'2 1.9
2017-Feb-27 00:33N 26°07' W 080°04'2 0.9
2017-Feb-26 22:17N 26°06' W 080°05'1 0.7
2017-Feb-26 21:33N 26°06' W 080°06'1 0.1
2017-Feb-26 12:27N 26°06' W 080°07'2 2.6
2017-Feb-26 11:33N 26°04' W 080°07'2 2.2
2017-Feb-26 10:33N 26°05' W 080°05'2 1.6
2017-Feb-26 09:33N 26°05' W 080°03'4 0.6
2017-Feb-26 03:24N 26°06' W 080°07'3 3.2
2017-Feb-26 02:33N 26°06' W 080°04'1 1.2
2017-Feb-26 01:33N 26°06' W 080°06'2 1.5
2017-Feb-26 00:30N 26°06' W 080°07'3 3.1
2017-Feb-25 23:33N 26°06' W 080°04'3 2.5
2017-Feb-25 22:34N 26°05' W 080°07'1 1.4
2017-Feb-25 21:33N 26°06' W 080°05'1 1.4
2017-Feb-25 20:33N 26°06' W 080°07'0 0.0
2017-Feb-25 15:32N 26°06' W 080°07'1 0.6
2017-Feb-25 14:33N 26°05' W 080°07'1 1.4
2017-Feb-25 13:33N 26°06' W 080°05'2 1.7
2017-Feb-25 12:33N 26°06' W 080°07'1 0.7
2017-Feb-25 11:33N 26°06' W 080°06'3 2.7
2017-Feb-25 10:33N 26°06' W 080°03'4 0.2
2017-Feb-24 14:33N 26°06' W 080°07'0 0.0
2017-Feb-22 23:28N 26°06' W 080°07'1 0.7
2017-Feb-22 22:33N 26°06' W 080°07'0 0.0
2017-Feb-22 16:27N 26°06' W 080°07'2 2.1
2017-Feb-22 15:34N 26°06' W 080°05'2 2.0
2017-Feb-22 14:33N 26°04' W 080°07'2 2.1
2017-Feb-22 13:33N 26°06' W 080°05'2 2.1
2017-Feb-22 12:33N 26°05' W 080°07'2 0.1
2017-Feb-21 18:06N 26°06' W 080°07'3 4.9
2017-Feb-21 17:33N 26°04' W 080°08'4 1.0
2017-Feb-21 13:33N 26°05' W 080°04'1 1.4
2017-Feb-21 12:33N 26°06' W 080°05'2 0.2
2017-Feb-20 23:26N 26°06' W 080°07'0 0.5
2017-Feb-20 22:33N 26°05' W 080°07'1 1.2
2017-Feb-20 21:33N 26°06' W 080°06'0 0.5
2017-Feb-20 20:33N 26°06' W 080°06'0 0.2
2017-Feb-20 18:34N 26°06' W 080°07'1 0.5
2017-Feb-20 17:33N 26°05' W 080°07'1 0.6
2017-Feb-20 16:33N 26°06' W 080°07'1 0.3
2017-Feb-20 14:31N 26°06' W 080°07'0 0.3
2017-Feb-20 13:33N 26°06' W 080°07'1 0.6
2017-Feb-20 12:22N 26°06' W 080°07'2 2.1
2017-Feb-20 11:34N 26°05' W 080°07'2 0.1
2017-Feb-19 22:33N 26°06' W 080°06'0 0.1
2017-Feb-19 21:33N 26°06' W 080°05'2 0.5
2017-Feb-19 18:31N 26°06' W 080°07'0 0.3
2017-Feb-19 17:33N 26°06' W 080°07'0 0.2
2017-Feb-19 16:33N 26°06' W 080°07'1 0.8
2017-Feb-19 15:33N 26°05' W 080°07'1 0.6
2017-Feb-19 13:33N 26°06' W 080°07'1 0.6
2017-Feb-19 12:33N 26°06' W 080°07'1 1.3
2017-Feb-19 11:33N 26°04' W 080°07'1 0.8
2017-Feb-19 10:33N 26°05' W 080°07'1 0.7
2017-Feb-19 09:33N 26°06' W 080°07'0 0.0
2017-Feb-18 23:19N 26°06' W 080°07'1 1.1
2017-Feb-18 22:33N 26°06' W 080°06'1 0.7
2017-Feb-18 21:33N 26°06' W 080°07'1 1.4
2017-Feb-18 20:33N 26°04' W 080°07'2 0.8
2017-Feb-18 18:30N 26°06' W 080°07'1 1.3
2017-Feb-18 17:33N 26°05' W 080°07'1 0.6
2017-Feb-18 15:23N 26°06' W 080°07'2 1.9
2017-Feb-18 14:33N 26°05' W 080°07'1 1.0
2017-Feb-18 13:34N 26°05' W 080°07'1 1.2
2017-Feb-18 12:33N 26°06' W 080°06'1 1.2
2017-Feb-18 11:31N 26°06' W 080°07'1 0.7
2017-Feb-18 10:34N 26°05' W 080°07'0 0.4
2017-Feb-18 09:33N 26°06' W 080°07'0 0.0
2017-Feb-17 20:29N 26°06' W 080°07'2 1.9
2017-Feb-17 19:33N 26°04' W 080°07'  
Track history (hours):
 
Tides and Currents Weather Stations Pressure Air Temp Water Temp Dewpoint Dewpoint Depression Visibility Wind Speed Wind Dir Waves Ship Positions

Pilot No. 4

Owner: P E P Inc, FORT LAUDERDALE, FL. More information available from US FCC via Universal Licensing System and Coast Guard Vessel Documentation Center.

Last reported at 2017-Feb-27 19:32 UTC. Time now 2017-Feb-28 12:45 UTC.
Position N 26°06' W 080°07'.

MMSI: 495270931.

Date/timePositionNaut miles runAvg speedWind from/ knotsBaromVisibWave heightAir tempDewpointWater temp
2017-Feb-27 19:32N 26°06' W 080°07'2 2.1
2017-Feb-27 18:33N 26°04' W 080°07'2 0.5
2017-Feb-27 15:34N 26°06' W 080°07'1 0.1
2017-Feb-27 03:32N 26°06' W 080°07'1 0.8
2017-Feb-27 02:33N 26°06' W 080°07'1 1.2
2017-Feb-27 01:34N 26°06' W 080°05'2 1.9
2017-Feb-27 00:33N 26°07' W 080°04'2 0.9
2017-Feb-26 22:17N 26°06' W 080°05'1 0.7
2017-Feb-26 21:33N 26°06' W 080°06'1 0.1
2017-Feb-26 12:27N 26°06' W 080°07'2 2.6
2017-Feb-26 11:33N 26°04' W 080°07'2 2.2
2017-Feb-26 10:33N 26°05' W 080°05'2 1.6
2017-Feb-26 09:33N 26°05' W 080°03'4 0.6
2017-Feb-26 03:24N 26°06' W 080°07'3 3.2
2017-Feb-26 02:33N 26°06' W 080°04'1 1.2
2017-Feb-26 01:33N 26°06' W 080°06'2 1.5
2017-Feb-26 00:30N 26°06' W 080°07'3 3.1
2017-Feb-25 23:33N 26°06' W 080°04'3 2.5
2017-Feb-25 22:34N 26°05' W 080°07'1 1.4
2017-Feb-25 21:33N 26°06' W 080°05'1 1.4
2017-Feb-25 20:33N 26°06' W 080°07'0 0.0
2017-Feb-25 15:32N 26°06' W 080°07'1 0.6
2017-Feb-25 14:33N 26°05' W 080°07'1 1.4
2017-Feb-25 13:33N 26°06' W 080°05'2 1.7
2017-Feb-25 12:33N 26°06' W 080°07'1 0.7
2017-Feb-25 11:33N 26°06' W 080°06'3 2.7
2017-Feb-25 10:33N 26°06' W 080°03'4 0.2
2017-Feb-24 14:33N 26°06' W 080°07'0 0.0
2017-Feb-22 23:28N 26°06' W 080°07'1 0.7
2017-Feb-22 22:33N 26°06' W 080°07'0 0.0
2017-Feb-22 16:27N 26°06' W 080°07'2 2.1
2017-Feb-22 15:34N 26°06' W 080°05'2 2.0
2017-Feb-22 14:33N 26°04' W 080°07'2 2.1
2017-Feb-22 13:33N 26°06' W 080°05'2 2.1
2017-Feb-22 12:33N 26°05' W 080°07'2 0.1
2017-Feb-21 18:06N 26°06' W 080°07'3 4.9
2017-Feb-21 17:33N 26°04' W 080°08'4 1.0
2017-Feb-21 13:33N 26°05' W 080°04'1 1.4
2017-Feb-21 12:33N 26°06' W 080°05'2 0.2
2017-Feb-20 23:26N 26°06' W 080°07'0 0.5
2017-Feb-20 22:33N 26°05' W 080°07'1 1.2
2017-Feb-20 21:33N 26°06' W 080°06'0 0.5
2017-Feb-20 20:33N 26°06' W 080°06'0 0.2
2017-Feb-20 18:34N 26°06' W 080°07'1 0.5
2017-Feb-20 17:33N 26°05' W 080°07'1 0.6
2017-Feb-20 16:33N 26°06' W 080°07'1 0.3
2017-Feb-20 14:31N 26°06' W 080°07'0 0.3
2017-Feb-20 13:33N 26°06' W 080°07'1 0.6
2017-Feb-20 12:22N 26°06' W 080°07'2 2.1
2017-Feb-20 11:34N 26°05' W 080°07'2 0.1
2017-Feb-19 22:33N 26°06' W 080°06'0 0.1
2017-Feb-19 21:33N 26°06' W 080°05'2 0.5
2017-Feb-19 18:31N 26°06' W 080°07'0 0.3
2017-Feb-19 17:33N 26°06' W 080°07'0 0.2
2017-Feb-19 16:33N 26°06' W 080°07'1 0.8
2017-Feb-19 15:33N 26°05' W 080°07'1 0.6
2017-Feb-19 13:33N 26°06' W 080°07'1 0.6
2017-Feb-19 12:33N 26°06' W 080°07'1 1.3
2017-Feb-19 11:33N 26°04' W 080°07'1 0.8
2017-Feb-19 10:33N 26°05' W 080°07'1 0.7
2017-Feb-19 09:33N 26°06' W 080°07'0 0.0
2017-Feb-18 23:19N 26°06' W 080°07'1 1.1
2017-Feb-18 22:33N 26°06' W 080°06'1 0.7
2017-Feb-18 21:33N 26°06' W 080°07'1 1.4
2017-Feb-18 20:33N 26°04' W 080°07'2 0.8
2017-Feb-18 18:30N 26°06' W 080°07'1 1.3
2017-Feb-18 17:33N 26°05' W 080°07'1 0.6
2017-Feb-18 15:23N 26°06' W 080°07'2 1.9
2017-Feb-18 14:33N 26°05' W 080°07'1 1.0
2017-Feb-18 13:34N 26°05' W 080°07'1 1.2
2017-Feb-18 12:33N 26°06' W 080°06'1 1.2
2017-Feb-18 11:31N 26°06' W 080°07'1 0.7
2017-Feb-18 10:34N 26°05' W 080°07'0 0.4
2017-Feb-18 09:33N 26°06' W 080°07'0 0.0
2017-Feb-17 20:29N 26°06' W 080°07'2 1.9
2017-Feb-17 19:33N 26°04' W 080°07'  

Dump ship's entire track history